Orbital elements of FENGYUN 1C DEB
| Launched | 9 May 1999 |
| Flight ended | – |
| Launch site | Taiyuan Space Center, PRC |
| Owner | People's Republic of China |
| NORAD ID | 36736 |
| Date fetched |
Epoch osculation |
Inc. [°] |
Ecc. | RA asc node [hr] |
Arg Peri. [°] |
Mean anom [°] |
Mean motion [rev/day] |
Abs. mag |
| Date fetched |
Epoch osculation |
Inc. [°] |
Ecc. | RA asc node [hr] |
Arg Peri. [°] |
Mean anom [°] |
Mean motion [rev/day] |
Abs. mag |
| 2026 May 07 17:58 | 2026 May 05 11:39:06 | 98.7926 | 0.00606 | 13.6378 | 84.2094 | 276.5987 | 14.26593 | – |
| 2026 May 06 17:57 | 2026 May 05 11:39:06 | 98.7926 | 0.00606 | 13.6378 | 84.2094 | 276.5987 | 14.26593 | – |
| 2026 May 05 17:57 | 2026 May 05 11:39:06 | 98.7926 | 0.00606 | 13.6378 | 84.2094 | 276.5987 | 14.26593 | – |
| 2026 May 04 17:57 | 2026 Apr 29 10:53:14 | 98.7932 | 0.00611 | 13.2339 | 101.2676 | 276.5987 | 14.26593 | – |
| 2026 May 03 17:57 | 2026 Apr 29 10:53:14 | 98.7932 | 0.00611 | 13.2339 | 101.2676 | 276.5987 | 14.26593 | – |
| 2026 May 02 17:57 | 2026 Apr 29 10:53:14 | 98.7932 | 0.00611 | 13.2339 | 101.2676 | 276.5987 | 14.26593 | – |
| 2026 May 01 17:56 | 2026 Apr 29 10:53:14 | 98.7932 | 0.00611 | 13.2339 | 101.2676 | 276.5987 | 14.26593 | – |
| 2026 Apr 30 17:56 | 2026 Apr 29 10:53:14 | 98.7932 | 0.00611 | 13.2339 | 101.2676 | 276.5987 | 14.26593 | – |
| 2026 Apr 29 17:57 | 2026 Apr 23 11:48:06 | 98.7924 | 0.00614 | 12.8346 | 118.0216 | 276.5987 | 14.26593 | – |
| 2026 Apr 28 17:56 | 2026 Apr 23 11:48:06 | 98.7924 | 0.00614 | 12.8346 | 118.0216 | 276.5987 | 14.26593 | – |
| 2026 Apr 27 17:58 | 2026 Apr 23 11:48:06 | 98.7924 | 0.00614 | 12.8346 | 118.0216 | 276.5987 | 14.26593 | – |
| 2026 Apr 26 17:58 | 2026 Apr 23 11:48:06 | 98.7924 | 0.00614 | 12.8346 | 118.0216 | 276.5987 | 14.26593 | – |
| 2026 Apr 25 17:58 | 2026 Apr 23 11:48:06 | 98.7924 | 0.00614 | 12.8346 | 118.0216 | 276.5987 | 14.26593 | – |
| 2026 Apr 24 17:59 | 2026 Apr 23 11:48:06 | 98.7924 | 0.00614 | 12.8346 | 118.0216 | 276.5987 | 14.26593 | – |
| 2026 Apr 23 17:57 | 2026 Apr 16 23:14:42 | 98.7934 | 0.00616 | 12.3978 | 136.3229 | 276.5987 | 14.26593 | – |
| 2026 Apr 22 17:57 | 2026 Apr 16 23:14:42 | 98.7934 | 0.00616 | 12.3978 | 136.3229 | 276.5987 | 14.26593 | – |
| 2026 Apr 21 17:57 | 2026 Apr 16 23:14:42 | 98.7934 | 0.00616 | 12.3978 | 136.3229 | 276.5987 | 14.26593 | – |
| 2026 Apr 20 17:57 | 2026 Apr 16 23:14:42 | 98.7934 | 0.00616 | 12.3978 | 136.3229 | 276.5987 | 14.26593 | – |
| 2026 Apr 19 17:58 | 2026 Apr 16 23:14:42 | 98.7934 | 0.00616 | 12.3978 | 136.3229 | 276.5987 | 14.26593 | – |
| 2026 Apr 18 17:56 | 2026 Apr 12 11:30:18 | 98.7935 | 0.00616 | 12.0972 | 148.9293 | 276.5987 | 14.26593 | – |
| 2026 Apr 16 17:57 | 2026 Apr 12 11:30:18 | 98.7935 | 0.00616 | 12.0972 | 148.9293 | 276.5987 | 14.26593 | – |
| 2026 Apr 14 17:57 | 2026 Apr 12 11:30:18 | 98.7935 | 0.00616 | 12.0972 | 148.9293 | 276.5987 | 14.26593 | – |
| 2026 Apr 13 17:57 | 2026 Apr 12 11:30:18 | 98.7935 | 0.00616 | 12.0972 | 148.9293 | 276.5987 | 14.26593 | – |
| 2026 Apr 12 17:57 | 2026 Apr 08 11:32:52 | 98.7925 | 0.00615 | 11.8295 | 160.0986 | 276.5987 | 14.26593 | – |
| 2026 Apr 11 17:57 | 2026 Apr 08 11:32:52 | 98.7925 | 0.00615 | 11.8295 | 160.0986 | 276.5987 | 14.26593 | – |
| 2026 Apr 10 17:58 | 2026 Apr 08 11:32:52 | 98.7925 | 0.00615 | 11.8295 | 160.0986 | 276.5987 | 14.26593 | – |